Time;durP1;ratioP1;P1;durP2;ratioP2;P2;SDS_P1;SDS_P2;PMS_P1;PMS_P2;Temp;Humidity;BMP_temperature;BMP_pressure;BME280_temperature;BME280_humidity;BME280_pressure;Samples;Min_cycle;Max_cycle;Signal;HPM_P1;HPM_P2
2021/12/19 00:00:58;;;;;;;31.63;21.58;;;;;;;0.89;84.96;99841.00;4958557;28;20031;-67
2021/12/19 00:03:46;;;;;;;30.98;22.08;;;;;;;0.85;84.67;99844.56;4971085;28;20429;-70
2021/12/19 00:08:56;;;;;;;32.33;21.92;;;;;;;0.60;84.53;99818.97;4958433;28;20037;-69
2021/12/19 00:11:23;;;;;;;29.88;20.30;;;;;;;0.34;84.62;99782.28;4957903;28;20039;-67
2021/12/19 00:13:50;;;;;;;29.45;20.85;;;;;;;0.73;84.61;99832.19;4959776;28;20019;-68
2021/12/19 00:16:16;;;;;;;29.88;21.42;;;;;;;0.75;85.17;99845.78;4938961;28;20030;-67
2021/12/19 00:18:43;;;;;;;29.48;20.77;;;;;;;0.49;85.54;99813.38;4938671;28;20798;-68
2021/12/19 00:21:11;;;;;;;30.90;20.92;;;;;;;0.57;85.23;99814.78;4954842;28;20054;-69
2021/12/19 00:23:37;;;;;;;31.60;21.92;;;;;;;0.71;85.20;99826.28;4930806;28;20042;-69
2021/12/19 00:26:03;;;;;;;27.13;19.00;;;;;;;0.75;84.13;99838.94;4954629;28;20067;-68
2021/12/19 00:28:29;;;;;;;31.45;20.38;;;;;;;0.26;85.03;99768.94;4971675;28;20062;-68
2021/12/19 00:30:54;;;;;;;31.02;20.27;;;;;;;0.61;85.01;99830.06;4967925;28;20470;-67
2021/12/19 00:33:20;;;;;;;30.92;20.75;;;;;;;0.50;85.19;99807.38;4959555;28;20294;-68
2021/12/19 00:35:46;;;;;;;29.77;19.30;;;;;;;0.62;84.62;99811.22;4971655;28;21534;-69
2021/12/19 00:38:11;;;;;;;31.00;20.85;;;;;;;0.67;84.42;99817.03;4968870;28;20030;-68
2021/12/19 00:40:37;;;;;;;29.42;19.67;;;;;;;0.42;84.99;99779.50;4957564;28;20023;-69
2021/12/19 00:43:06;;;;;;;30.30;19.20;;;;;;;0.33;85.01;99757.59;4969697;28;20041;-70
2021/12/19 00:45:34;;;;;;;32.23;20.43;;;;;;;0.56;85.03;99795.19;4951695;28;20094;-68
2021/12/19 00:48:01;;;;;;;33.53;21.98;;;;;;;0.65;85.54;99800.91;4953995;28;20019;-71
2021/12/19 00:50:27;;;;;;;34.50;21.77;;;;;;;0.67;84.42;99799.94;4964298;28;20039;-69
2021/12/19 00:52:53;;;;;;;29.85;20.58;;;;;;;0.55;84.36;99785.03;4968449;28;20023;-70
2021/12/19 00:55:20;;;;;;;29.55;20.45;;;;;;;0.22;84.03;99723.88;4942592;28;20043;-68
2021/12/19 00:57:46;;;;;;;28.23;20.13;;;;;;;0.57;85.14;99783.25;4952725;28;20035;-68
2021/12/19 01:00:14;;;;;;;30.23;20.25;;;;;;;0.51;85.29;99775.75;4953959;28;20077;-66
2021/12/19 01:02:40;;;;;;;28.80;18.98;;;;;;;0.51;85.44;99786.84;4955650;28;20777;-67
2021/12/19 01:05:06;;;;;;;27.38;18.65;;;;;;;0.59;85.07;99783.19;4959671;28;20031;-70
2021/12/19 01:07:32;;;;;;;28.05;18.67;;;;;;;0.55;85.04;99762.81;4957462;28;20050;-66
2021/12/19 01:09:58;;;;;;;27.08;18.77;;;;;;;0.65;84.98;99780.41;4980511;28;20801;-69
2021/12/19 01:12:24;;;;;;;27.98;19.45;;;;;;;0.54;84.44;99771.38;4964324;28;20034;-67
2021/12/19 01:14:50;;;;;;;27.15;18.08;;;;;;;0.28;84.42;99727.94;4978517;28;20033;-67
2021/12/19 01:17:15;;;;;;;27.77;18.58;;;;;;;0.37;84.36;99764.28;4977081;28;20042;-67
2021/12/19 01:19:40;;;;;;;27.58;18.73;;;;;;;0.41;84.38;99770.13;4947808;28;20142;-69
2021/12/19 01:22:06;;;;;;;29.25;18.00;;;;;;;0.06;85.35;99709.94;4963320;28;20474;-66
2021/12/19 01:24:32;;;;;;;28.13;17.73;;;;;;;0.44;84.98;99762.34;4961827;28;20065;-69
2021/12/19 01:26:57;;;;;;;25.45;18.25;;;;;;;0.03;84.19;99689.56;4973287;28;20035;-69
2021/12/19 01:29:22;;;;;;;26.70;18.10;;;;;;;0.28;84.85;99756.09;4963062;28;20030;-70
2021/12/19 01:31:48;;;;;;;27.50;18.08;;;;;;;0.29;86.08;99750.06;4962987;28;20039;-67
2021/12/19 01:34:14;;;;;;;26.98;18.75;;;;;;;0.35;85.73;99757.56;4960609;28;20035;-67
2021/12/19 01:36:40;;;;;;;29.48;18.80;;;;;;;0.28;84.93;99733.91;4955613;28;20027;-69
2021/12/19 01:39:06;;;;;;;25.65;17.40;;;;;;;0.38;85.28;99734.41;4958499;28;20778;-67
2021/12/19 01:41:32;;;;;;;27.80;18.95;;;;;;;0.15;86.28;99740.31;4942909;28;20078;-68
2021/12/19 01:43:57;;;;;;;27.80;18.38;;;;;;;0.22;87.29;99744.34;4962631;28;20062;-67
2021/12/19 01:46:22;;;;;;;26.80;18.52;;;;;;;0.05;90.21;99695.47;4961504;28;20496;-69
2021/12/19 01:48:48;;;;;;;26.48;18.42;;;;;;;0.45;88.82;99743.53;4963612;28;20071;-67
2021/12/19 01:51:13;;;;;;;25.77;18.27;;;;;;;0.10;87.48;99671.41;4963396;28;20406;-68
2021/12/19 01:53:39;;;;;;;25.80;18.13;;;;;;;0.51;87.79;99743.34;4964895;28;20383;-68
2021/12/19 01:56:06;;;;;;;27.90;18.60;;;;;;;0.51;88.89;99735.66;4964681;28;20480;-67
2021/12/19 01:58:32;;;;;;;26.52;17.75;;;;;;;0.44;88.13;99708.63;4956479;28;20085;-67
2021/12/19 02:00:58;;;;;;;26.65;17.30;;;;;;;0.60;88.03;99726.81;4957749;28;20478;-68
2021/12/19 02:03:24;;;;;;;26.05;17.65;;;;;;;0.64;88.93;99730.94;4964964;28;20038;-68
2021/12/19 02:05:50;;;;;;;23.20;16.88;;;;;;;0.68;90.38;99716.31;4960988;28;20471;-67
2021/12/19 02:08:16;;;;;;;31.80;17.95;;;;;;;0.72;89.76;99712.75;4961384;28;20038;-69
2021/12/19 02:10:42;;;;;;;23.90;17.42;;;;;;;0.80;89.83;99708.16;4978032;28;20053;-67
2021/12/19 02:13:10;;;;;;;23.80;17.63;;;;;;;0.80;89.85;99717.59;4976123;28;20027;-68
2021/12/19 02:15:37;;;;;;;25.88;17.40;;;;;;;0.68;91.08;99686.44;4959742;28;20034;-67
2021/12/19 02:18:09;;;;;;;24.63;16.15;;;;;;;0.86;90.19;99713.09;4973137;28;20041;-68
2021/12/19 02:20:38;;;;;;;28.00;17.58;;;;;;;0.55;90.17;99642.53;4957174;28;20611;-69
2021/12/19 02:23:04;;;;;;;25.48;17.77;;;;;;;1.06;94.27;99691.84;4962170;28;20034;-67
2021/12/19 02:25:31;;;;;;;22.80;16.27;;;;;;;1.07;91.79;99706.31;4959775;28;20030;-68
2021/12/19 02:27:56;;;;;;;26.40;17.23;;;;;;;1.08;89.69;99700.31;4992766;28;20113;-68
2021/12/19 02:30:22;;;;;;;22.40;16.33;;;;;;;1.07;89.28;99700.38;4962169;28;20502;-68
2021/12/19 02:32:47;;;;;;;25.73;16.35;;;;;;;1.09;90.08;99693.44;4965753;28;20085;-69
2021/12/19 02:35:18;;;;;;;21.50;15.30;;;;;;;0.72;89.69;99635.94;4971189;28;20189;-67
2021/12/19 02:48:21;;;;;;;23.02;16.58;;;;;;;0.86;88.87;99672.13;4959643;28;20307;-66
2021/12/19 02:50:51;;;;;;;25.45;16.25;;;;;;;0.63;88.83;99628.63;4972365;28;20035;-67
2021/12/19 02:53:27;;;;;;;21.27;15.52;;;;;;;0.56;88.42;99610.91;4956931;28;20485;-67
2021/12/19 02:55:52;;;;;;;20.80;14.90;;;;;;;0.82;88.29;99662.88;4956217;28;20402;-69
2021/12/19 02:58:18;;;;;;;24.60;16.27;;;;;;;0.88;88.54;99674.63;4958392;28;20038;-67
2021/12/19 03:00:43;;;;;;;23.17;15.82;;;;;;;0.81;87.68;99673.19;4958321;28;20034;-68
2021/12/19 03:03:09;;;;;;;23.15;15.18;;;;;;;0.80;87.31;99677.44;4956605;28;20037;-68
2021/12/19 03:05:34;;;;;;;23.02;16.15;;;;;;;0.68;87.75;99660.81;4942810;28;20038;-68
2021/12/19 03:08:02;;;;;;;24.30;16.10;;;;;;;0.37;87.58;99607.38;4959252;28;20126;-67
2021/12/19 03:13:31;;;;;;;21.88;14.90;;;;;;;0.75;87.31;99651.22;4959945;28;20133;-67
2021/12/19 03:18:47;;;;;;;24.58;15.57;;;;;;;0.15;87.09;99595.34;4958340;28;20581;-70
2021/12/19 03:21:16;;;;;;;24.02;16.30;;;;;;;0.51;87.04;99640.97;4956498;28;20105;-68
2021/12/19 03:23:41;;;;;;;23.77;16.05;;;;;;;0.52;86.83;99654.59;4961396;28;20667;-67
2021/12/19 03:26:07;;;;;;;22.17;14.73;;;;;;;0.50;87.01;99644.41;4978107;28;20026;-68
2021/12/19 03:28:33;;;;;;;26.15;15.50;;;;;;;0.31;86.61;99607.56;4960035;28;20031;-68
2021/12/19 03:30:58;;;;;;;22.05;15.35;;;;;;;0.41;86.02;99639.63;4961893;28;20030;-68
2021/12/19 03:33:24;;;;;;;23.58;15.35;;;;;;;0.43;87.17;99621.66;4962360;28;20038;-69
2021/12/19 03:35:50;;;;;;;22.40;15.35;;;;;;;0.47;85.90;99639.41;4952424;28;20113;-69
2021/12/19 03:38:16;;;;;;;21.67;14.65;;;;;;;0.40;85.55;99611.53;4962274;28;20162;-67
2021/12/19 03:40:52;;;;;;;21.90;14.73;;;;;;;0.48;86.56;99627.47;4962213;28;20037;-68
2021/12/19 03:43:20;;;;;;;21.95;14.25;;;;;;;0.48;85.97;99619.78;4972838;28;20027;-68
2021/12/19 03:45:46;;;;;;;23.08;14.93;;;;;;;0.25;86.38;99621.44;4957768;28;20022;-67
2021/12/19 03:48:14;;;;;;;22.65;14.57;;;;;;;-0.21;86.80;99554.84;4977411;28;20033;-67
2021/12/19 03:50:43;;;;;;;21.70;14.25;;;;;;;-0.04;86.53;99586.66;4959482;28;20057;-67
2021/12/19 03:53:09;;;;;;;21.33;14.05;;;;;;;0.25;86.63;99615.47;4951504;28;20690;-70
2021/12/19 03:55:34;;;;;;;21.70;14.82;;;;;;;0.29;86.42;99617.88;4957245;28;20031;-66
2021/12/19 03:58:01;;;;;;;22.83;14.85;;;;;;;0.28;85.59;99617.94;4976946;28;20030;-68
2021/12/19 04:00:27;;;;;;;22.13;13.90;;;;;;;0.27;85.72;99618.81;4945894;28;20398;-68
2021/12/19 04:02:56;;;;;;;22.05;14.23;;;;;;;0.08;85.90;99577.72;4962840;28;20027;-69
2021/12/19 04:05:21;;;;;;;21.50;15.38;;;;;;;0.11;86.02;99583.56;4954688;28;20034;-67
2021/12/19 04:07:47;;;;;;;22.10;14.45;;;;;;;0.19;85.54;99588.41;4957468;28;20497;-67
2021/12/19 04:10:13;;;;;;;25.35;14.70;;;;;;;0.22;85.63;99588.31;4953456;28;20043;-68
2021/12/19 04:12:38;;;;;;;21.25;14.68;;;;;;;0.10;85.54;99569.09;4959686;28;20043;-68
2021/12/19 04:15:05;;;;;;;20.38;13.93;;;;;;;-0.02;84.98;99554.19;4960644;28;20054;-67
2021/12/19 04:17:30;;;;;;;20.88;14.30;;;;;;;-0.22;85.58;99525.06;4959572;28;20042;-67
2021/12/19 04:19:56;;;;;;;21.20;14.30;;;;;;;0.14;85.68;99578.31;4969923;28;20031;-69
2021/12/19 04:22:21;;;;;;;22.02;14.32;;;;;;;0.15;85.69;99569.78;4943267;28;20433;-67
2021/12/19 04:24:47;;;;;;;20.98;14.43;;;;;;;0.21;85.84;99573.84;4942123;28;20117;-68
2021/12/19 04:27:13;;;;;;;20.98;13.80;;;;;;;-0.17;85.45;99527.44;4958689;28;20049;-69
2021/12/19 04:29:38;;;;;;;20.88;14.75;;;;;;;-0.02;85.60;99574.66;4958582;28;20354;-68
2021/12/19 04:32:04;;;;;;;20.92;13.98;;;;;;;0.03;85.97;99580.44;4974743;28;20118;-68
2021/12/19 04:34:29;;;;;;;21.55;14.23;;;;;;;-0.07;86.34;99579.13;4956177;28;20081;-66
2021/12/19 04:37:03;;;;;;;20.75;13.95;;;;;;;-0.40;86.87;99520.63;4958800;28;20033;-68
2021/12/19 04:39:39;;;;;;;21.38;14.00;;;;;;;-0.01;86.14;99563.53;4956303;28;20465;-67
2021/12/19 04:43:21;;;;;;;20.80;13.63;;;;;;;-0.03;85.45;99562.78;4959143;28;20031;-69
2021/12/19 04:53:21;;;;;;;18.73;12.68;;;;;;;0.04;87.03;99543.75;4978373;28;20508;-68
2021/12/19 05:04:01;;;;;;;23.98;13.65;;;;;;;0.22;86.28;99549.06;4957592;28;20062;-67
2021/12/19 05:14:29;;;;;;;20.20;13.05;;;;;;;0.23;86.42;99530.28;4962527;28;20143;-68
2021/12/19 05:17:00;;;;;;;19.27;12.43;;;;;;;0.20;86.40;99526.09;4956201;28;20031;-68
2021/12/19 05:19:30;;;;;;;20.65;12.48;;;;;;;0.25;86.09;99528.50;4962407;28;20073;-67
2021/12/19 05:22:00;;;;;;;;;;;;;;;0.22;86.73;99538.84;4960401;28;20042;-67
2021/12/19 05:27:08;;;;;;;18.75;12.63;;;;;;;0.21;86.97;99534.63;4961312;28;20323;-67
2021/12/19 05:29:35;;;;;;;20.40;13.73;;;;;;;0.19;87.23;99542.38;4945334;28;20043;-68
2021/12/19 05:32:00;;;;;;;18.70;12.75;;;;;;;0.22;87.35;99532.03;4957454;28;20031;-68
2021/12/19 05:34:27;;;;;;;19.35;12.68;;;;;;;0.21;87.33;99522.66;4960538;28;20097;-68
2021/12/19 05:45:12;;;;;;;16.70;11.48;;;;;;;-0.04;87.41;99477.56;4953666;28;20141;-68
2021/12/19 05:47:38;;;;;;;19.92;12.80;;;;;;;0.23;86.99;99525.19;4959889;28;20038;-69
2021/12/19 05:50:04;;;;;;;18.85;12.02;;;;;;;0.04;86.09;99523.31;4975380;28;20038;-69
2021/12/19 05:52:29;;;;;;;18.30;12.60;;;;;;;-0.02;86.77;99524.38;4963089;28;20409;-68
2021/12/19 05:54:55;;;;;;;19.10;12.10;;;;;;;0.05;85.63;99524.94;4968029;28;20035;-69
2021/12/19 05:57:20;;;;;;;21.42;14.02;;;;;;;-0.03;86.30;99521.84;4959541;28;20118;-70
2021/12/19 05:59:45;;;;;;;19.13;12.43;;;;;;;-0.08;85.55;99514.34;4961936;28;20027;-68
2021/12/19 06:02:11;;;;;;;21.38;12.82;;;;;;;-0.45;85.91;99458.59;4974615;28;20050;-67
2021/12/19 06:04:36;;;;;;;18.20;13.20;;;;;;;-0.10;85.95;99511.00;4961329;28;20029;-69
2021/12/19 06:07:02;;;;;;;17.67;12.68;;;;;;;-0.02;86.07;99511.56;4978036;28;20418;-68
2021/12/19 06:09:27;;;;;;;18.38;13.30;;;;;;;-0.14;86.16;99498.41;4978814;28;20473;-68
2021/12/19 06:11:53;;;;;;;20.15;12.82;;;;;;;-0.30;85.67;99459.78;4963703;28;20057;-68
2021/12/19 06:14:18;;;;;;;19.65;13.00;;;;;;;-0.21;85.72;99482.44;4955508;28;20039;-68
2021/12/19 06:16:44;;;;;;;19.67;12.93;;;;;;;-0.10;85.91;99484.63;4940943;28;22069;-67
2021/12/19 06:19:10;;;;;;;17.58;11.32;;;;;;;-0.45;85.95;99436.44;4979027;28;20106;-69
2021/12/19 06:21:35;;;;;;;22.48;12.90;;;;;;;-0.18;85.95;99477.22;4960504;28;20034;-67
2021/12/19 06:24:01;;;;;;;18.40;13.02;;;;;;;-0.08;85.58;99481.09;4977603;28;20034;-68
2021/12/19 06:26:26;;;;;;;19.20;12.63;;;;;;;-0.12;84.88;99476.16;4961489;28;20130;-68
2021/12/19 06:28:51;;;;;;;17.55;12.23;;;;;;;-0.47;85.64;99422.88;4962344;28;20022;-68
2021/12/19 06:31:17;;;;;;;18.17;12.73;;;;;;;-0.27;85.20;99445.16;4962204;28;20031;-68
2021/12/19 06:33:43;;;;;;;20.77;12.98;;;;;;;-0.18;85.96;99481.50;4960605;28;20042;-68
2021/12/19 06:36:09;;;;;;;15.88;11.38;;;;;;;-0.39;86.39;99443.88;4957856;28;20366;-68
2021/12/19 06:38:35;;;;;;;19.17;12.52;;;;;;;-0.24;86.19;99469.75;4958323;28;20021;-69
2021/12/19 06:41:00;;;;;;;20.83;12.48;;;;;;;-0.26;87.07;99466.44;4962689;28;20039;-68
2021/12/19 06:43:28;;;;;;;18.65;12.35;;;;;;;-0.24;87.16;99474.88;4962446;28;20027;-68
2021/12/19 06:45:55;;;;;;;18.02;12.13;;;;;;;-0.24;86.06;99480.00;4942596;28;20775;-68
2021/12/19 06:48:24;;;;;;;19.33;12.00;;;;;;;-0.37;86.43;99471.09;4963040;28;20044;-69
2021/12/19 06:50:50;;;;;;;17.42;12.10;;;;;;;-0.35;86.54;99479.53;4974074;28;20837;-67
2021/12/19 06:53:15;;;;;;;20.45;13.07;;;;;;;-0.69;87.24;99411.78;4960655;28;20053;-67
2021/12/19 06:55:41;;;;;;;16.90;11.98;;;;;;;-0.40;87.31;99464.41;4958994;28;20694;-67
2021/12/19 06:58:06;;;;;;;18.45;11.65;;;;;;;-0.42;86.64;99438.88;4959098;28;20037;-67
2021/12/19 07:00:32;;;;;;;17.13;12.25;;;;;;;-0.21;86.28;99452.59;4964248;28;20035;-67
2021/12/19 07:02:57;;;;;;;18.60;12.30;;;;;;;-0.33;86.23;99450.50;4944340;28;20034;-67
2021/12/19 07:05:23;;;;;;;19.92;11.85;;;;;;;-0.29;86.18;99459.72;4969909;28;20034;-68
2021/12/19 07:07:48;;;;;;;17.10;11.90;;;;;;;-0.59;86.48;99413.91;4941195;28;20031;-68
2021/12/19 07:10:14;;;;;;;17.27;12.30;;;;;;;-0.29;85.89;99463.97;4958400;28;20042;-67
2021/12/19 07:12:39;;;;;;;16.58;11.82;;;;;;;-0.34;85.17;99451.38;4959655;28;20084;-68
2021/12/19 07:15:06;;;;;;;16.35;11.25;;;;;;;-0.31;86.04;99443.63;4958263;28;20118;-68
2021/12/19 07:17:32;;;;;;;19.15;11.80;;;;;;;-0.26;86.20;99457.03;4955204;28;20065;-69
2021/12/19 07:19:58;;;;;;;16.00;11.55;;;;;;;-0.27;86.38;99446.91;4971798;28;21531;-68
2021/12/19 07:22:23;;;;;;;16.92;12.20;;;;;;;-0.28;86.26;99451.16;4957507;28;20027;-68
2021/12/19 07:24:48;;;;;;;19.05;12.10;;;;;;;-0.21;86.18;99452.59;4958323;28;20672;-67
2021/12/19 07:27:14;;;;;;;19.65;12.27;;;;;;;-0.66;86.22;99399.72;4962824;28;20042;-68
2021/12/19 07:29:40;;;;;;;16.65;11.45;;;;;;;-0.26;86.71;99457.03;4940166;28;20462;-69
2021/12/19 07:32:06;;;;;;;17.00;12.18;;;;;;;-0.26;85.72;99466.44;4958790;28;20038;-69
2021/12/19 07:34:34;;;;;;;17.45;12.10;;;;;;;-0.47;86.42;99452.72;4973325;28;20506;-68
2021/12/19 07:37:00;;;;;;;17.15;12.00;;;;;;;-0.62;86.88;99416.59;4955881;28;20509;-67
2021/12/19 07:42:05;;;;;;;18.83;12.27;;;;;;;-0.25;86.58;99447.66;4959215;28;20123;-68
2021/12/19 07:44:30;;;;;;;20.80;12.98;;;;;;;-0.70;86.23;99385.38;4956086;28;21826;-68
2021/12/19 07:46:56;;;;;;;19.27;12.88;;;;;;;-0.68;86.09;99393.81;4956631;28;20521;-67
2021/12/19 07:49:21;;;;;;;19.23;12.38;;;;;;;-0.18;86.83;99454.22;4956880;28;20701;-67
2021/12/19 07:51:46;;;;;;;16.98;12.05;;;;;;;-0.24;85.70;99445.06;4937996;28;20207;-67
2021/12/19 07:54:12;;;;;;;19.88;12.70;;;;;;;-0.26;86.00;99456.22;4957488;28;20722;-66
2021/12/19 07:56:37;;;;;;;17.42;12.43;;;;;;;-0.54;85.62;99401.00;4975090;28;20034;-67
2021/12/19 07:59:03;;;;;;;21.85;13.98;;;;;;;-0.30;85.29;99437.59;4969660;28;20034;-69
2021/12/19 08:01:29;;;;;;;20.63;12.73;;;;;;;-0.30;85.49;99427.38;4956261;28;20311;-68
2021/12/19 08:03:54;;;;;;;18.67;13.30;;;;;;;-0.30;85.86;99439.31;4941053;28;20071;-69
2021/12/19 08:06:19;;;;;;;21.05;13.32;;;;;;;-0.28;85.81;99429.88;4958737;28;20061;-67
2021/12/19 08:08:52;;;;;;;21.77;15.07;;;;;;;-0.25;85.87;99429.78;4954679;28;20027;-68
2021/12/19 08:14:03;;;;;;;18.63;13.20;;;;;;;-0.23;85.02;99417.78;4951239;28;20598;-69
2021/12/19 08:16:29;;;;;;;19.13;13.05;;;;;;;-0.32;85.57;99401.03;4957835;28;20038;-68
2021/12/19 08:18:54;;;;;;;18.50;12.30;;;;;;;-0.33;nan;99401.94;4951308;28;20046;-67
2021/12/19 08:21:20;;;;;;;20.10;13.38;;;;;;;-0.37;86.10;99408.03;4972984;28;20031;-68
2021/12/19 08:23:46;;;;;;;19.08;12.88;;;;;;;-0.28;86.37;99415.38;4933751;28;20046;-70
2021/12/19 08:26:12;;;;;;;18.95;12.90;;;;;;;-0.41;86.19;99409.88;4974657;28;20038;-68
2021/12/19 08:28:37;;;;;;;20.88;13.25;;;;;;;-0.68;86.84;99344.47;4957397;28;20046;-67
2021/12/19 08:31:03;;;;;;;20.67;13.30;;;;;;;-0.35;86.79;99396.03;4960236;28;20030;-67
2021/12/19 08:33:28;;;;;;;19.75;12.85;;;;;;;-0.33;87.27;99404.50;4957883;28;20055;-68
2021/12/19 08:35:54;;;;;;;19.73;13.25;;;;;;;-0.26;90.44;99408.47;4956077;28;20114;-69
2021/12/19 08:38:19;;;;;;;17.83;12.68;;;;;;;-0.04;93.34;99411.09;4958405;28;20041;-66
2021/12/19 08:40:46;;;;;;;21.55;13.32;;;;;;;0.01;90.37;99405.78;4970142;28;20027;-67
2021/12/19 08:43:12;;;;;;;19.20;12.18;;;;;;;0.06;90.80;99393.66;4958196;28;20042;-66
2021/12/19 08:45:37;;;;;;;18.17;12.40;;;;;;;0.20;90.24;99403.31;4973678;28;20023;-67
2021/12/19 08:48:04;;;;;;;18.35;12.70;;;;;;;0.24;89.05;99397.22;4971497;28;20550;-68
2021/12/19 08:50:30;;;;;;;17.52;12.52;;;;;;;0.15;88.69;99387.34;4950359;28;20604;-68
2021/12/19 08:52:55;;;;;;;19.55;12.65;;;;;;;0.26;88.93;99402.28;4958528;28;20134;-67
2021/12/19 08:55:21;;;;;;;17.20;12.35;;;;;;;0.29;88.47;99391.91;4957219;28;20031;-68
2021/12/19 08:57:46;;;;;;;20.00;12.77;;;;;;;0.28;88.44;99396.19;4949479;28;20066;-67
2021/12/19 09:00:13;;;;;;;18.42;13.38;;;;;;;0.29;88.47;99390.22;4957481;28;20554;-67
2021/12/19 09:02:42;;;;;;;22.35;13.55;;;;;;;0.20;88.77;99398.22;4959276;28;20069;-71
2021/12/19 09:05:08;;;;;;;26.75;16.63;;;;;;;-0.21;90.07;99382.75;4956625;28;20402;-68
2021/12/19 09:07:33;;;;;;;21.77;14.93;;;;;;;0.01;89.82;99380.22;4958181;28;20042;-67
2021/12/19 09:09:58;;;;;;;22.38;15.38;;;;;;;0.13;89.10;99371.25;4968893;28;20088;-67
2021/12/19 09:12:25;;;;;;;20.80;14.93;;;;;;;0.15;88.86;99374.56;4958459;28;20117;-68
2021/12/19 09:14:51;;;;;;;21.38;14.70;;;;;;;-0.03;88.71;99330.91;4957899;28;20061;-67
2021/12/19 09:17:16;;;;;;;20.52;15.75;;;;;;;0.18;89.31;99349.69;4954372;28;20074;-66
2021/12/19 09:19:42;;;;;;;24.55;17.67;;;;;;;0.29;89.70;99387.66;4959206;28;20055;-67
2021/12/19 09:22:07;;;;;;;25.88;17.23;;;;;;;0.32;90.20;99382.38;4974735;28;20059;-67
2021/12/19 09:24:33;;;;;;;24.75;16.75;;;;;;;0.33;90.69;99376.41;4956331;28;20486;-70
2021/12/19 09:26:59;;;;;;;26.02;17.48;;;;;;;0.50;90.60;99382.56;4957077;28;20042;-67
2021/12/19 09:29:28;;;;;;;24.70;16.88;;;;;;;0.42;90.73;99377.75;4953469;28;20118;-66
2021/12/19 09:31:54;;;;;;;23.45;15.45;;;;;;;0.42;91.36;99385.44;4963428;28;20106;-66
2021/12/19 09:34:19;;;;;;;23.25;14.05;;;;;;;0.59;94.48;99382.19;4961364;28;20022;-68
2021/12/19 09:36:45;;;;;;;19.42;13.75;;;;;;;0.74;94.65;99380.72;4945869;28;20054;-68
2021/12/19 09:39:10;;;;;;;18.55;11.98;;;;;;;0.40;95.16;99310.44;4960964;28;20074;-67
2021/12/19 09:41:42;;;;;;;18.63;12.43;;;;;;;0.55;95.61;99320.03;4978198;28;20034;-67
2021/12/19 09:44:09;;;;;;;15.88;10.18;;;;;;;0.94;95.17;99361.94;4940517;28;20027;-67
2021/12/19 09:46:37;;;;;;;15.23;10.43;;;;;;;1.06;94.99;99364.00;4939415;28;20038;-67
2021/12/19 09:49:05;;;;;;;17.23;10.68;;;;;;;0.82;93.72;99313.81;4954802;28;20030;-69
2021/12/19 09:51:30;;;;;;;15.70;9.77;;;;;;;0.88;93.78;99296.47;4951646;28;20384;-68
2021/12/19 09:53:56;;;;;;;13.32;9.20;;;;;;;1.02;93.47;99300.97;4942108;28;20766;-67
2021/12/19 09:56:21;;;;;;;13.75;9.75;;;;;;;0.79;92.68;99309.66;4959620;28;20046;-68
2021/12/19 09:58:49;;;;;;;14.23;9.25;;;;;;;1.27;93.51;99339.16;4954536;28;20935;-66
2021/12/19 10:01:14;;;;;;;14.60;10.48;;;;;;;1.46;93.57;99348.56;4958764;28;20121;-68
2021/12/19 10:03:40;;;;;;;13.68;9.48;;;;;;;1.52;93.09;99345.75;4958445;28;20082;-68
2021/12/19 10:06:26;;;;;;;15.32;10.00;;;;;;;1.59;93.02;99329.19;4958063;28;20599;-66
2021/12/19 10:09:19;;;;;;;13.63;9.05;;;;;;;1.84;92.49;99333.16;4964325;28;20034;-65
2021/12/19 10:14:24;;;;;;;12.13;8.05;;;;;;;2.03;90.66;99331.41;4976919;28;20850;-67
2021/12/19 10:16:50;;;;;;;13.18;8.55;;;;;;;1.83;89.80;99287.94;4943042;28;20502;-69
2021/12/19 10:19:15;;;;;;;11.38;7.70;;;;;;;2.10;88.71;99314.00;4957829;28;20070;-66
2021/12/19 10:21:40;;;;;;;12.85;7.93;;;;;;;1.77;89.12;99253.16;4961144;28;20081;-68
2021/12/19 10:24:06;;;;;;;12.63;8.63;;;;;;;2.30;88.96;99311.28;4957960;28;20023;-67
2021/12/19 10:26:42;;;;;;;13.63;8.25;;;;;;;2.37;89.47;99288.69;4979220;28;20162;-66
2021/12/19 10:29:10;;;;;;;15.13;7.60;;;;;;;2.40;88.25;99280.84;4975358;28;20660;-67
2021/12/19 10:31:35;;;;;;;14.23;7.90;;;;;;;2.48;87.77;99299.28;4951392;28;20023;-65
2021/12/19 10:34:20;;;;;;;11.98;8.50;;;;;;;2.53;89.16;99288.75;4975771;28;20847;-67
2021/12/19 10:36:46;;;;;;;13.23;8.32;;;;;;;2.53;88.54;99278.50;4910880;28;20548;-66
2021/12/19 10:39:15;;;;;;;12.52;8.13;;;;;;;2.56;89.09;99270.66;4974954;28;20057;-66
2021/12/19 10:41:42;;;;;;;12.95;8.80;;;;;;;2.79;88.73;99266.06;4977571;28;20031;-65
2021/12/19 10:45:29;;;;;;;12.73;9.13;;;;;;;2.90;88.10;99261.19;4977730;28;20089;-68
2021/12/19 10:46:53;;;;;;;11.63;7.78;;;;;;;2.99;85.60;99265.00;4973125;28;20064;-67
2021/12/19 10:49:32;;;;;;;11.20;7.70;;;;;;;3.05;86.43;99267.28;4959160;28;20034;-67
2021/12/19 10:52:04;;;;;;;10.63;7.85;;;;;;;3.13;86.04;99265.13;4976641;28;20043;-67
2021/12/19 10:54:30;;;;;;;11.55;7.65;;;;;;;3.16;85.10;99246.13;4968544;28;20066;-66
2021/12/19 10:57:32;;;;;;;11.65;7.82;;;;;;;3.14;85.24;99241.09;4971126;28;20054;-67
2021/12/19 10:59:58;;;;;;;11.60;7.55;;;;;;;3.14;85.51;99232.53;4952234;28;20034;-68
2021/12/19 11:02:38;;;;;;;12.75;8.00;;;;;;;2.86;85.67;99175.75;4955188;28;20031;-70
2021/12/19 11:05:04;;;;;;;11.85;7.53;;;;;;;3.27;84.17;99221.53;4958725;28;20467;-67
2021/12/19 11:07:30;;;;;;;10.77;7.82;;;;;;;3.27;84.09;99208.66;4974560;28;20045;-69
2021/12/19 11:09:55;;;;;;;14.10;8.13;;;;;;;3.04;83.74;99155.94;4950369;28;20347;-66
2021/12/19 11:12:21;;;;;;;12.48;8.48;;;;;;;3.47;83.12;99212.72;4977899;28;20047;-65
2021/12/19 11:14:51;;;;;;;15.18;8.00;;;;;;;3.47;81.78;99192.16;4969398;28;20038;-68
2021/12/19 11:17:26;;;;;;;12.68;7.70;;;;;;;3.39;81.33;99160.88;4970022;28;20046;-66
2021/12/19 11:19:56;;;;;;;10.82;7.20;;;;;;;3.30;81.23;99129.72;4958405;28;20501;-67
2021/12/19 11:22:25;;;;;;;12.05;7.78;;;;;;;3.56;81.13;99175.38;4974708;28;20039;-65
2021/12/19 11:24:58;;;;;;;9.90;7.20;;;;;;;3.30;81.50;99116.88;4935434;28;20023;-66
2021/12/19 11:27:24;;;;;;;9.25;6.38;;;;;;;3.68;80.95;99173.84;4960774;28;20034;-67
2021/12/19 11:29:51;;;;;;;11.05;6.32;;;;;;;3.84;78.57;99172.06;4948944;28;20096;-69
2021/12/19 11:32:19;;;;;;;11.43;6.78;;;;;;;4.00;77.77;99168.59;4948105;28;20062;-66
2021/12/19 11:34:57;;;;;;;9.90;7.00;;;;;;;3.99;79.47;99157.47;4944566;28;20034;-66
2021/12/19 11:37:28;;;;;;;12.45;7.50;;;;;;;4.14;79.00;99149.75;4957536;28;20054;-65
2021/12/19 11:39:55;;;;;;;10.23;6.95;;;;;;;4.16;77.14;99141.06;4944218;28;20043;-67
2021/12/19 11:42:35;;;;;;;10.45;6.50;;;;;;;4.15;75.42;99131.66;4957034;28;20027;-67
2021/12/19 11:45:26;;;;;;;9.55;6.10;;;;;;;4.10;76.27;99133.69;4956979;28;20085;-67
2021/12/19 11:47:57;;;;;;;9.05;5.65;;;;;;;3.85;74.32;99072.53;4955218;28;20122;-66
2021/12/19 11:50:29;;;;;;;8.90;5.80;;;;;;;4.21;73.58;99123.56;4957717;28;20105;-68
2021/12/19 11:53:19;;;;;;;9.55;5.95;;;;;;;4.29;73.20;99120.56;4951425;28;20054;-66
2021/12/19 11:55:47;;;;;;;13.35;5.97;;;;;;;4.38;73.29;99114.00;4957629;28;20050;-68
2021/12/19 11:58:19;;;;;;;10.45;6.68;;;;;;;4.35;74.10;99099.56;4958970;28;20032;-67
2021/12/19 12:00:59;;;;;;;10.85;6.78;;;;;;;4.14;75.32;99068.22;4974485;28;20134;-66
2021/12/19 12:03:30;;;;;;;9.20;5.75;;;;;;;4.43;75.23;99076.78;4954790;28;20038;-65
2021/12/19 12:05:58;;;;;;;8.60;5.78;;;;;;;4.56;74.62;99088.88;4951062;28;20119;-67
2021/12/19 12:08:25;;;;;;;9.20;5.50;;;;;;;4.59;75.19;99080.97;4953970;28;20097;-68
2021/12/19 12:10:59;;;;;;;9.43;6.32;;;;;;;4.74;73.23;99092.88;4967045;28;20065;-66
2021/12/19 12:13:32;;;;;;;8.23;5.10;;;;;;;4.88;72.53;99078.31;4958034;28;20027;-69
2021/12/19 12:16:30;;;;;;;8.60;5.63;;;;;;;4.84;73.22;99069.94;4938176;28;20615;-68
2021/12/19 12:18:58;;;;;;;7.90;4.90;;;;;;;5.05;72.11;99060.00;4960114;28;20031;-66
2021/12/19 12:21:29;;;;;;;9.30;5.60;;;;;;;5.22;72.12;99063.25;4956882;28;20118;-66
2021/12/19 12:24:04;;;;;;;8.55;5.47;;;;;;;5.24;74.17;99058.81;4936613;28;20725;-69
2021/12/19 12:29:04;;;;;;;9.18;5.45;;;;;;;5.04;75.31;99034.31;4951649;28;20062;-67
2021/12/19 12:31:29;;;;;;;7.72;4.45;;;;;;;5.15;67.64;99037.88;4972206;28;20502;-68
2021/12/19 12:33:55;;;;;;;8.10;4.50;;;;;;;5.12;70.48;99021.78;4955370;28;20524;-65